Terminal Aerodrome Forecast
Issued by NWS

Home | Current Version | Previous Version | Graphics & Text | Print | Product List | Glossary On
Versions: 1 2 3 4 5 6 7 8 9 10 11 12 13 14 15 16 17 18 19
000
FTUS43 KICT 241731
TAFHUT
TAF
KHUT 241731Z 2418/2518 17018G27KT P6SM OVC008
     FM241900 18023G31KT P6SM BKN015
     FM242100 18023G31KT P6SM SCT035
     FM250200 21013KT P6SM VCTS BKN040CB
     FM250800 31010KT P6SM SCT080=

USA.gov is the U.S. government's official web portal to all federal, state and local government web resources and services.